createdAt,value
2022-11-24T00:01:24.882Z,8.47
2022-11-24T00:03:55.672Z,8.46
2022-11-24T00:06:25.113Z,8.46
2022-11-24T00:08:54.639Z,8.51
2022-11-24T00:11:25.001Z,8.59
2022-11-24T00:13:53.708Z,8.66
2022-11-24T00:16:25.702Z,8.65
2022-11-24T00:18:56.731Z,8.65
2022-11-24T00:21:29.798Z,8.70
2022-11-24T00:23:58.465Z,8.71
2022-11-24T00:26:29.674Z,8.64
2022-11-24T00:29:01.081Z,8.70
2022-11-24T00:31:33.891Z,8.67
2022-11-24T00:34:05.902Z,8.65
2022-11-24T00:36:36.122Z,8.77
2022-11-24T00:39:07.666Z,8.70
2022-11-24T00:41:37.448Z,8.70
2022-11-24T00:44:06.302Z,8.76
2022-11-24T00:46:35.982Z,8.75
2022-11-24T00:49:04.868Z,8.77
2022-11-24T00:51:33.290Z,8.84
2022-11-24T00:54:02.006Z,8.78
2022-11-24T00:56:31.022Z,8.81
2022-11-24T00:58:59.088Z,8.77
2022-11-24T01:01:31.036Z,8.78
2022-11-24T01:04:01.547Z,8.80
2022-11-24T01:06:30.377Z,8.82
2022-11-24T01:08:58.670Z,8.77
2022-11-24T01:11:29.983Z,8.82
2022-11-24T01:13:59.589Z,8.79
2022-11-24T01:16:31.678Z,8.82
2022-11-24T01:19:05.977Z,8.80
2022-11-24T01:21:33.927Z,8.77
2022-11-24T01:24:01.910Z,8.77
2022-11-24T01:26:30.085Z,8.76
2022-11-24T01:28:58.840Z,8.73
2022-11-24T01:31:27.649Z,8.80
2022-11-24T01:33:55.982Z,8.73
2022-11-24T01:36:25.356Z,8.70
2022-11-24T01:38:53.288Z,8.78
2022-11-24T01:41:25.000Z,8.75
2022-11-24T01:43:55.252Z,8.72
2022-11-24T01:46:30.213Z,8.72
2022-11-24T01:49:06.755Z,8.75
2022-11-24T01:51:43.152Z,8.73
2022-11-24T01:54:16.989Z,8.73
2022-11-24T01:56:51.240Z,8.82
2022-11-24T01:59:21.733Z,8.76
2022-11-24T02:01:53.121Z,8.79
2022-11-24T02:04:27.907Z,8.82
2022-11-24T02:07:00.816Z,8.77
2022-11-24T02:09:37.471Z,8.77
2022-11-24T02:12:06.968Z,8.79
2022-11-24T02:14:37.858Z,8.85
2022-11-24T02:17:05.912Z,8.85
2022-11-24T02:19:48.947Z,8.71
2022-11-24T02:22:33.868Z,8.76
2022-11-24T02:25:11.932Z,8.80
2022-11-24T02:27:48.121Z,8.81
2022-11-24T02:30:19.070Z,8.82
2022-11-24T02:32:47.067Z,8.85
2022-11-24T02:35:15.727Z,8.87
2022-11-24T02:37:43.638Z,8.85
2022-11-24T02:40:15.648Z,8.79
2022-11-24T02:42:47.093Z,8.80
2022-11-24T02:45:16.857Z,8.86
2022-11-24T02:47:45.957Z,8.86
2022-11-24T02:50:13.932Z,8.92
2022-11-24T02:52:42.043Z,8.95
2022-11-24T02:55:10.305Z,8.96
2022-11-24T02:57:38.310Z,9.01
2022-11-24T03:00:09.956Z,9.00
2022-11-24T03:02:37.953Z,9.05
2022-11-24T03:05:07.015Z,9.17
2022-11-24T03:07:35.036Z,9.24
2022-11-24T03:10:04.162Z,9.38
2022-11-24T03:12:32.119Z,9.42
2022-11-24T03:15:00.164Z,9.52
2022-11-24T03:17:29.720Z,9.55
2022-11-24T03:20:01.508Z,9.58
2022-11-24T03:22:32.604Z,9.57
2022-11-24T03:25:01.006Z,9.50
2022-11-24T03:27:30.682Z,9.45
2022-11-24T03:29:58.940Z,9.36
2022-11-24T03:32:26.958Z,9.31
2022-11-24T03:34:56.225Z,9.26
2022-11-24T03:37:24.152Z,9.21
2022-11-24T03:39:52.093Z,9.23
2022-11-24T03:42:20.095Z,9.24
2022-11-24T03:44:48.053Z,9.15
2022-11-24T03:47:15.999Z,9.08
2022-11-24T03:49:43.908Z,9.19
2022-11-24T03:52:13.249Z,9.19
2022-11-24T03:54:42.322Z,9.25
2022-11-24T03:57:10.312Z,9.30
2022-11-24T03:59:39.190Z,9.38
2022-11-24T04:02:07.755Z,9.28
2022-11-24T04:04:36.187Z,9.25
2022-11-24T04:07:04.369Z,9.28
2022-11-24T04:09:36.039Z,9.27
2022-11-24T04:12:22.650Z,9.21
2022-11-24T04:14:50.435Z,9.23
2022-11-24T04:17:18.177Z,9.22
2022-11-24T04:19:45.978Z,9.23
2022-11-24T04:22:15.023Z,9.17
2022-11-24T04:24:44.337Z,9.13
2022-11-24T04:27:12.143Z,9.18
2022-11-24T04:29:40.102Z,9.23
2022-11-24T04:32:08.827Z,9.25
2022-11-24T04:34:37.179Z,9.20
2022-11-24T04:37:05.443Z,9.20
2022-11-24T04:39:33.840Z,9.18
2022-11-24T04:42:03.125Z,9.08
2022-11-24T04:44:31.002Z,9.12
2022-11-24T04:46:59.212Z,9.09
2022-11-24T04:49:27.279Z,9.09
2022-11-24T04:51:55.072Z,9.08
2022-11-24T04:54:23.081Z,9.09
2022-11-24T04:56:52.199Z,9.12
2022-11-24T04:59:21.421Z,9.15
2022-11-24T05:01:49.482Z,9.14
2022-11-24T05:04:18.796Z,9.17
2022-11-24T05:06:47.181Z,9.26
2022-11-24T05:09:17.433Z,9.22
2022-11-24T05:11:45.671Z,9.26
2022-11-24T05:14:13.549Z,9.33
2022-11-24T05:16:42.821Z,9.33
2022-11-24T05:19:10.834Z,9.31
2022-11-24T05:21:39.004Z,9.33
2022-11-24T05:24:07.646Z,9.32
2022-11-24T05:26:35.698Z,9.33
2022-11-24T05:29:04.012Z,9.45
2022-11-24T05:31:31.830Z,9.43
2022-11-24T05:34:00.987Z,9.39
2022-11-24T05:37:01.419Z,9.39
2022-11-24T05:39:29.987Z,9.48
2022-11-24T05:41:59.028Z,9.59
2022-11-24T05:44:26.954Z,9.66
2022-11-24T05:46:54.812Z,9.78
2022-11-24T05:49:23.963Z,9.86
2022-11-24T05:51:51.772Z,9.89
2022-11-24T05:54:19.599Z,10.04
2022-11-24T05:56:47.398Z,10.04
2022-11-24T05:59:15.259Z,10.07
2022-11-24T06:01:43.218Z,10.04
2022-11-24T06:04:11.085Z,10.14
2022-11-24T06:06:40.303Z,10.16
2022-11-24T06:09:08.680Z,10.16
2022-11-24T06:11:36.554Z,10.13
2022-11-24T06:14:08.312Z,10.18
2022-11-24T06:16:39.033Z,10.28
2022-11-24T06:19:06.896Z,10.26
2022-11-24T06:21:34.635Z,10.30
2022-11-24T06:24:04.649Z,10.33
2022-11-24T06:26:32.753Z,10.29
2022-11-24T06:29:01.308Z,10.35
2022-11-24T06:31:29.371Z,10.44
2022-11-24T06:33:57.388Z,10.47
2022-11-24T06:36:25.630Z,10.46
2022-11-24T06:38:53.637Z,10.43
2022-11-24T06:41:22.823Z,10.49
2022-11-24T06:43:50.743Z,10.41
2022-11-24T06:46:18.773Z,10.42
2022-11-24T06:48:47.106Z,10.44
2022-11-24T06:51:15.016Z,10.49
2022-11-24T06:53:43.196Z,10.54
2022-11-24T06:56:16.527Z,10.59
2022-11-24T06:58:48.694Z,10.67
2022-11-24T07:01:18.059Z,10.62
2022-11-24T07:03:48.048Z,10.68
2022-11-24T07:06:16.484Z,10.61
2022-11-24T07:08:44.690Z,10.67
2022-11-24T07:11:15.678Z,10.58
2022-11-24T07:13:47.265Z,10.56
2022-11-24T07:16:17.822Z,10.59
2022-11-24T07:18:47.427Z,10.43
2022-11-24T07:21:16.383Z,10.51
2022-11-24T07:23:44.367Z,10.43
2022-11-24T07:26:12.285Z,10.39
2022-11-24T07:28:40.347Z,10.40
2022-11-24T07:31:12.524Z,10.39
2022-11-24T07:33:41.071Z,10.39
2022-11-24T07:36:09.943Z,10.38
2022-11-24T07:38:37.692Z,10.55
2022-11-24T07:41:07.867Z,10.54
2022-11-24T07:43:38.431Z,10.53
2022-11-24T07:46:12.148Z,10.59
2022-11-24T07:48:40.497Z,10.44
2022-11-24T07:51:09.746Z,10.23
2022-11-24T07:53:38.396Z,10.35
2022-11-24T07:56:07.745Z,10.45
2022-11-24T07:58:37.546Z,10.40
2022-11-24T08:01:16.718Z,10.32
2022-11-24T08:03:46.135Z,10.20
2022-11-24T08:06:28.550Z,9.92
2022-11-24T08:08:57.341Z,9.99
2022-11-24T08:11:26.152Z,9.77
2022-11-24T08:13:54.132Z,9.76
2022-11-24T08:16:23.649Z,9.84
2022-11-24T08:18:55.847Z,9.97
2022-11-24T08:21:24.586Z,10.08
2022-11-24T08:23:55.626Z,10.20
2022-11-24T08:26:25.425Z,10.04
2022-11-24T08:28:56.432Z,9.91
2022-11-24T08:31:33.358Z,10.14
2022-11-24T08:34:04.165Z,10.22
2022-11-24T08:36:33.219Z,10.18
2022-11-24T08:39:02.040Z,10.13
2022-11-24T08:41:31.290Z,10.26
2022-11-24T08:43:59.297Z,10.35
2022-11-24T08:46:28.661Z,10.38
2022-11-24T08:48:56.658Z,10.39
2022-11-24T08:51:28.253Z,10.44
2022-11-24T08:54:00.334Z,10.27
2022-11-24T08:56:30.796Z,10.19
2022-11-24T08:59:00.184Z,10.34
2022-11-24T09:01:29.891Z,10.44
2022-11-24T09:03:58.559Z,10.55
2022-11-24T09:06:30.730Z,10.48
2022-11-24T09:09:00.032Z,10.54
2022-11-24T09:11:29.254Z,10.58
2022-11-24T09:13:57.918Z,10.56
2022-11-24T09:16:30.422Z,10.44
2022-11-24T09:19:01.703Z,10.16
2022-11-24T09:21:31.537Z,10.10
2022-11-24T09:23:59.706Z,10.01
2022-11-24T09:26:31.569Z,10.00
2022-11-24T09:29:02.337Z,10.02
2022-11-24T09:31:34.640Z,10.10
2022-11-24T09:34:04.074Z,10.23
2022-11-24T09:36:32.142Z,10.19
2022-11-24T09:39:00.223Z,10.29
2022-11-24T09:41:43.671Z,10.30
2022-11-24T09:44:46.132Z,10.24
2022-11-24T09:47:37.618Z,10.28
2022-11-24T09:50:13.992Z,10.22
2022-11-24T09:52:52.923Z,10.18
2022-11-24T09:55:34.847Z,10.32
2022-11-24T09:58:16.133Z,10.26
2022-11-24T10:00:51.884Z,10.37
2022-11-24T10:03:30.471Z,10.35
2022-11-24T10:06:05.285Z,10.24
2022-11-24T10:09:07.523Z,10.44
2022-11-24T10:11:47.933Z,10.63
2022-11-24T10:14:58.997Z,11.03
2022-11-24T10:17:48.191Z,11.30
2022-11-24T10:20:35.002Z,11.42
2022-11-24T10:23:26.135Z,11.34
2022-11-24T10:25:58.739Z,11.43
2022-11-24T10:28:37.844Z,11.49
2022-11-24T10:31:24.354Z,11.50
2022-11-24T10:33:52.417Z,11.42
2022-11-24T10:36:36.422Z,11.31
2022-11-24T10:39:17.495Z,11.36
2022-11-24T10:41:58.089Z,11.47
2022-11-24T10:44:25.929Z,11.58
2022-11-24T10:46:53.924Z,11.68
2022-11-24T10:49:29.978Z,11.65
2022-11-24T10:52:07.984Z,11.64
2022-11-24T10:54:36.125Z,11.57
2022-11-24T10:57:04.537Z,11.59
2022-11-24T10:59:38.324Z,11.53
2022-11-24T11:02:36.984Z,11.49
2022-11-24T11:05:42.077Z,11.43
2022-11-24T11:08:22.054Z,11.53
2022-11-24T11:11:04.162Z,11.43
2022-11-24T11:13:34.523Z,11.54
2022-11-24T11:16:33.402Z,11.37
2022-11-24T11:19:15.718Z,11.26
2022-11-24T11:22:02.425Z,11.19
2022-11-24T11:24:32.880Z,11.26
2022-11-24T11:27:03.565Z,11.35
2022-11-24T11:35:13.641Z,11.44
2022-11-24T11:37:43.393Z,11.58
2022-11-24T11:40:17.926Z,11.74
2022-11-24T11:43:05.986Z,11.96
2022-11-24T11:45:44.014Z,12.01
2022-11-24T11:48:35.049Z,12.16
2022-11-24T11:51:36.264Z,12.06
2022-11-24T11:54:17.886Z,12.32
2022-11-24T11:56:54.981Z,12.23
2022-11-24T11:59:53.472Z,12.42
2022-11-24T12:03:16.771Z,12.56
2022-11-24T12:05:55.676Z,12.22
2022-11-24T12:09:11.774Z,12.13
2022-11-24T12:11:43.204Z,12.22
2022-11-24T12:14:30.814Z,11.86
2022-11-24T12:17:09.067Z,12.00
2022-11-24T12:20:07.049Z,11.91
2022-11-24T12:22:50.897Z,12.18
2022-11-24T12:25:28.672Z,12.23
2022-11-24T12:28:18.007Z,12.37
2022-11-24T12:31:04.604Z,12.53
2022-11-24T12:34:07.851Z,12.68
2022-11-24T12:37:07.660Z,12.78
2022-11-24T12:40:18.376Z,12.85
2022-11-24T12:42:59.780Z,12.91
2022-11-24T12:45:38.898Z,12.87
2022-11-24T12:48:36.856Z,12.97
2022-11-24T12:51:17.110Z,12.86
2022-11-24T12:53:48.025Z,13.07
2022-11-24T12:56:25.897Z,13.18
2022-11-24T12:59:10.008Z,13.40
2022-11-24T13:01:47.948Z,13.62
2022-11-24T13:04:36.609Z,13.40
2022-11-24T13:07:14.509Z,13.47
2022-11-24T13:13:27.855Z,13.64
2022-11-24T13:19:15.063Z,13.47
2022-11-24T13:21:59.593Z,13.18
2022-11-24T13:24:30.817Z,13.14
2022-11-24T13:27:44.032Z,13.16
2022-11-24T13:30:54.476Z,12.99
2022-11-24T13:33:34.010Z,13.05
2022-11-24T13:36:34.069Z,12.88
2022-11-24T13:39:18.211Z,12.68
2022-11-24T13:42:07.232Z,12.73
2022-11-24T13:44:53.498Z,12.80
2022-11-24T13:47:43.081Z,12.96
2022-11-24T13:50:24.173Z,12.91
2022-11-24T13:53:06.430Z,12.98
2022-11-24T13:55:40.359Z,12.87
2022-11-24T13:58:32.072Z,12.72
2022-11-24T14:01:16.274Z,12.69
2022-11-24T14:04:28.613Z,12.50
2022-11-24T14:06:56.708Z,12.61
2022-11-24T14:09:32.185Z,12.55
2022-11-24T14:12:15.058Z,12.51
2022-11-24T14:14:45.820Z,12.52
2022-11-24T14:17:21.094Z,12.65
2022-11-24T14:19:51.834Z,12.46
2022-11-24T14:22:22.878Z,12.43
2022-11-24T14:24:57.136Z,12.33
2022-11-24T14:27:36.966Z,12.37
2022-11-24T14:30:19.975Z,12.38
2022-11-24T14:32:58.725Z,12.27
2022-11-24T14:35:29.604Z,12.25
2022-11-24T14:37:58.483Z,12.22
2022-11-24T14:40:41.685Z,12.16
2022-11-24T14:43:26.021Z,12.11
2022-11-24T14:45:58.076Z,12.06
2022-11-24T14:48:30.469Z,11.98
2022-11-24T14:51:12.837Z,11.88
2022-11-24T14:53:44.926Z,11.83
2022-11-24T14:56:25.164Z,11.75
2022-11-24T14:58:56.283Z,11.70
2022-11-24T15:01:32.922Z,11.52
2022-11-24T15:07:19.480Z,11.26
2022-11-24T15:09:54.582Z,11.25
2022-11-24T15:12:30.454Z,11.17
2022-11-24T15:15:03.683Z,10.99
2022-11-24T15:17:32.025Z,10.91
2022-11-24T15:20:10.736Z,10.90
2022-11-24T15:22:42.261Z,10.77
2022-11-24T15:25:35.407Z,10.65
2022-11-24T15:28:03.914Z,10.61
2022-11-24T15:30:35.799Z,10.56
2022-11-24T15:33:13.424Z,10.50
2022-11-24T15:35:41.720Z,10.37
2022-11-24T15:38:10.047Z,10.31
2022-11-24T15:40:43.578Z,10.29
2022-11-24T15:43:27.721Z,10.14
2022-11-24T15:45:58.438Z,10.10
2022-11-24T15:48:26.755Z,10.06
2022-11-24T15:50:56.962Z,9.99
2022-11-24T15:53:30.507Z,9.88
2022-11-24T15:56:00.340Z,9.78
2022-11-24T15:58:28.235Z,9.62
2022-11-24T16:00:57.489Z,9.56
2022-11-24T16:06:24.087Z,9.44
2022-11-24T16:08:52.680Z,9.42
2022-11-24T16:11:21.387Z,9.36
2022-11-24T16:13:52.788Z,9.32
2022-11-24T16:16:25.169Z,9.24
2022-11-24T16:18:54.460Z,9.12
2022-11-24T16:21:23.193Z,9.02
2022-11-24T16:23:52.405Z,9.00
2022-11-24T16:26:21.516Z,8.98
2022-11-24T16:28:49.335Z,8.94
2022-11-24T16:31:18.438Z,8.91
2022-11-24T16:33:47.747Z,8.83
2022-11-24T16:36:15.923Z,8.79
2022-11-24T16:38:44.207Z,8.82
2022-11-24T16:41:12.411Z,8.77
2022-11-24T16:43:40.373Z,8.77
2022-11-24T16:46:21.149Z,8.79
2022-11-24T16:48:53.005Z,8.72
2022-11-24T16:51:23.240Z,8.66
2022-11-24T16:53:58.627Z,8.62
2022-11-24T16:56:28.840Z,8.61
2022-11-24T16:58:56.926Z,8.65
2022-11-24T17:01:26.037Z,8.63
2022-11-24T17:03:55.704Z,8.58
2022-11-24T17:06:23.575Z,8.52
2022-11-24T17:08:51.444Z,8.54
2022-11-24T17:11:22.741Z,8.54
2022-11-24T17:13:50.723Z,8.40
2022-11-24T17:16:21.198Z,8.45
2022-11-24T17:18:50.070Z,8.43
2022-11-24T17:21:21.936Z,8.41
2022-11-24T17:23:55.222Z,8.43
2022-11-24T17:26:24.959Z,8.34
2022-11-24T17:28:55.913Z,8.26
2022-11-24T17:31:27.217Z,8.20
2022-11-24T17:33:57.284Z,8.22
2022-11-24T17:36:27.762Z,8.22
2022-11-24T17:38:55.659Z,8.29
2022-11-24T17:41:23.606Z,8.33
2022-11-24T17:43:53.176Z,8.38
2022-11-24T17:46:21.402Z,8.40
2022-11-24T17:48:49.762Z,8.36
2022-11-24T17:51:19.832Z,8.37
2022-11-24T17:53:52.168Z,8.40
2022-11-24T17:56:23.514Z,8.39
2022-11-24T17:58:54.286Z,8.43
2022-11-24T18:01:24.304Z,8.44
2022-11-24T18:03:53.886Z,8.41
2022-11-24T18:06:25.541Z,8.36
2022-11-24T18:08:57.387Z,8.26
2022-11-24T18:11:31.521Z,8.20
2022-11-24T18:14:03.990Z,8.13
2022-11-24T18:16:35.009Z,8.08
2022-11-24T18:19:09.965Z,8.03
2022-11-24T18:21:40.300Z,8.03
2022-11-24T18:24:13.267Z,7.99
2022-11-24T18:26:42.104Z,8.02
2022-11-24T18:29:11.453Z,8.06
2022-11-24T18:31:39.838Z,7.99
2022-11-24T18:34:09.474Z,7.95
2022-11-24T18:36:37.285Z,7.90
2022-11-24T18:39:08.160Z,7.86
2022-11-24T18:41:39.281Z,7.80
2022-11-24T18:44:08.599Z,7.76
2022-11-24T18:46:37.656Z,7.76
2022-11-24T18:49:07.198Z,7.71
2022-11-24T18:51:39.027Z,7.63
2022-11-24T18:54:09.290Z,7.61
2022-11-24T18:56:41.169Z,7.64
2022-11-24T18:59:09.200Z,7.63
2022-11-24T19:01:37.857Z,7.69
2022-11-24T19:04:05.986Z,7.71
2022-11-24T19:06:36.344Z,7.77
2022-11-24T19:09:06.922Z,7.84
2022-11-24T19:11:39.427Z,7.86
2022-11-24T19:14:11.923Z,7.90
2022-11-24T19:16:40.572Z,7.94
2022-11-24T19:19:11.482Z,7.92
2022-11-24T19:21:41.194Z,7.95
2022-11-24T19:24:11.087Z,7.97
2022-11-24T19:26:40.635Z,7.95
2022-11-24T19:29:09.370Z,7.96
2022-11-24T19:31:39.732Z,8.01
2022-11-24T19:34:08.096Z,7.99
2022-11-24T19:36:36.757Z,8.00
2022-11-24T19:39:05.262Z,8.01
2022-11-24T19:41:34.444Z,8.00
2022-11-24T19:44:03.983Z,8.07
2022-11-24T19:46:33.495Z,8.11
2022-11-24T19:49:02.567Z,8.06
2022-11-24T19:51:32.530Z,8.04
2022-11-24T19:54:01.275Z,8.03
2022-11-24T19:56:31.903Z,8.03
2022-11-24T19:58:59.949Z,8.04
2022-11-24T20:01:31.677Z,7.96
2022-11-24T20:04:01.580Z,7.92
2022-11-24T20:06:32.344Z,7.88
2022-11-24T20:09:01.695Z,7.82
2022-11-24T20:11:30.440Z,7.82
2022-11-24T20:13:58.954Z,7.76
2022-11-24T20:16:31.048Z,7.78
2022-11-24T20:19:01.629Z,7.70
2022-11-24T20:21:32.806Z,7.70
2022-11-24T20:24:04.446Z,7.70
2022-11-24T20:26:36.989Z,7.69
2022-11-24T20:29:06.780Z,7.62
2022-11-24T20:31:40.208Z,7.55
2022-11-24T20:34:10.015Z,7.54
2022-11-24T20:36:43.943Z,7.50
2022-11-24T20:39:17.293Z,7.53
2022-11-24T20:41:45.244Z,7.55
2022-11-24T20:44:18.169Z,7.50
2022-11-24T20:46:50.525Z,7.50
2022-11-24T20:49:20.481Z,7.45
2022-11-24T20:51:48.909Z,7.54
2022-11-24T20:54:18.481Z,7.48
2022-11-24T20:56:47.656Z,7.44
2022-11-24T20:59:19.428Z,7.34
2022-11-24T21:02:05.326Z,7.28
2022-11-24T21:04:35.141Z,7.22
2022-11-24T21:07:03.847Z,7.24
2022-11-24T21:09:31.603Z,7.25
2022-11-24T21:12:00.063Z,7.30
2022-11-24T21:14:31.219Z,7.35
2022-11-24T21:17:04.168Z,7.38
2022-11-24T21:19:32.046Z,7.41
2022-11-24T21:21:59.807Z,7.44
2022-11-24T21:24:30.869Z,7.42
2022-11-24T21:26:58.874Z,7.45
2022-11-24T21:29:26.928Z,7.46
2022-11-24T21:31:54.912Z,7.52
2022-11-24T21:34:24.148Z,7.50
2022-11-24T21:36:52.240Z,7.51
2022-11-24T21:39:20.371Z,7.48
2022-11-24T21:41:48.366Z,7.45
2022-11-24T21:44:16.324Z,7.49
2022-11-24T21:46:49.538Z,7.49
2022-11-24T21:49:18.946Z,7.40
2022-11-24T21:51:55.239Z,7.41
2022-11-24T21:54:23.647Z,7.38
2022-11-24T21:56:53.188Z,7.35
2022-11-24T21:59:22.269Z,7.34
2022-11-24T22:01:50.252Z,7.37
2022-11-24T22:04:18.080Z,7.35
2022-11-24T22:06:46.236Z,7.29
2022-11-24T22:09:18.206Z,7.34
2022-11-24T22:11:49.342Z,7.19
2022-11-24T22:14:17.812Z,7.20
2022-11-24T22:16:46.189Z,7.20
2022-11-24T22:19:14.163Z,7.11
2022-11-24T22:21:42.265Z,7.04
2022-11-24T22:24:10.310Z,7.06
2022-11-24T22:26:39.573Z,7.06
2022-11-24T22:29:08.349Z,7.06
2022-11-24T22:31:36.365Z,6.93
2022-11-24T22:34:05.112Z,6.94
2022-11-24T22:36:33.183Z,6.90
2022-11-24T22:39:03.837Z,6.84
2022-11-24T22:41:34.645Z,6.88
2022-11-24T22:44:04.841Z,6.81
2022-11-24T22:46:33.802Z,6.78
2022-11-24T22:49:02.298Z,6.80
2022-11-24T22:51:33.239Z,6.88
2022-11-24T22:54:04.475Z,6.89
2022-11-24T22:56:35.862Z,6.87
2022-11-24T22:59:05.829Z,6.90
2022-11-24T23:01:34.318Z,6.90
2022-11-24T23:04:03.815Z,6.93
2022-11-24T23:06:33.729Z,6.97
2022-11-24T23:09:04.638Z,6.91
2022-11-24T23:11:38.125Z,6.98
2022-11-24T23:14:13.048Z,6.89
2022-11-24T23:16:41.696Z,6.89
2022-11-24T23:19:09.778Z,6.86
2022-11-24T23:21:38.936Z,6.90
2022-11-24T23:24:08.613Z,6.87
2022-11-24T23:26:39.873Z,6.94
2022-11-24T23:29:10.416Z,6.93
2022-11-24T23:31:40.078Z,6.91
2022-11-24T23:34:08.533Z,6.94
2022-11-24T23:36:36.375Z,6.92
2022-11-24T23:39:06.580Z,7.03
2022-11-24T23:41:34.765Z,7.02
2022-11-24T23:44:02.675Z,7.00
2022-11-24T23:46:32.916Z,6.92
2022-11-24T23:49:00.923Z,6.93
2022-11-24T23:51:31.101Z,6.98
2022-11-24T23:54:00.484Z,7.01
2022-11-24T23:56:34.051Z,7.09
2022-11-24T23:59:04.476Z,7.18
